Terminal Aerodrome Forecast
Issued by NWS Sioux Falls, SD

Home | Current Version | Previous Version | Text Only | Print | Product List | Glossary On
Versions: 1 2 3 4 5 6 7 8 9 10 11 12 13 14 15 16 17 18 19 20
000
FTUS43 KFSD 261120
TAFHON
TAF
KHON 261120Z 2612/2712 30012KT P6SM SCT100
     FM261600 31015G22KT P6SM SCT080
     FM262300 32007KT P6SM SCT060
     FM270300 VRB03KT P6SM SCT120=

USA.gov is the U.S. government's official web portal to all federal, state and local government web resources and services.